Time;durP1;ratioP1;P1;durP2;ratioP2;P2;SDS_P1;SDS_P2;PMS_P1;PMS_P2;Temp;Humidity;BMP_temperature;BMP_pressure;BME280_temperature;BME280_humidity;BME280_pressure;Samples;Min_cycle;Max_cycle;Signal;HPM_P1;HPM_P2
2023/07/15 00:00:13;;;;;;;;;;;18.90;99.90;;;;;;5136171;27;20019;-80
2023/07/15 00:02:39;;;;;;;;;;;18.90;99.90;;;;;;5136530;27;19919;-78
2023/07/15 00:05:10;;;;;;;;;;;18.90;99.90;;;;;;5154275;27;19919;-80
2023/07/15 00:07:36;;;;;;;;;;;19.00;99.90;;;;;;5136403;27;20327;-78
2023/07/15 00:10:02;;;;;;;;;;;19.00;99.90;;;;;;5118790;27;19919;-80
2023/07/15 00:12:28;;;;;;;;;;;19.00;99.90;;;;;;5136431;27;19923;-79
2023/07/15 00:14:53;;;;;;;;;;;19.00;99.90;;;;;;5136081;27;20395;-81
2023/07/15 00:17:19;;;;;;;;;;;19.00;99.90;;;;;;5135940;27;20019;-80
2023/07/15 00:19:44;;;;;;;;;;;19.00;99.90;;;;;;5136143;27;19919;-81
2023/07/15 00:22:10;;;;;;;;;;;19.00;99.90;;;;;;5118506;27;19929;-78
2023/07/15 00:24:37;;;;;;;;;;;19.00;99.90;;;;;;5154222;27;20403;-78
2023/07/15 00:27:04;;;;;;;;;;;19.00;99.90;;;;;;5118693;27;19926;-79
2023/07/15 00:29:29;;;;;;;;;;;19.00;99.90;;;;;;5136235;27;19919;-78
2023/07/15 00:31:57;;;;;;;;;;;19.00;99.90;;;;;;5135919;27;20374;-82
2023/07/15 00:34:22;;;;;;;;;;;19.00;99.90;;;;;;5135364;27;19923;-80
2023/07/15 00:36:48;;;;;;;;;;;19.10;99.90;;;;;;5136272;27;19963;-81
2023/07/15 00:39:15;;;;;;;;;;;19.10;99.90;;;;;;5135113;27;19988;-80
2023/07/15 00:41:41;;;;;;;;;;;19.10;99.90;;;;;;5135739;27;19967;-78
2023/07/15 00:44:14;;;;;;;;;;;19.10;99.90;;;;;;5135990;27;19926;-79
2023/07/15 00:47:05;;;;;;;;;;;19.00;99.90;;;;;;5118807;27;19923;-78
2023/07/15 00:49:31;;;;;;;;;;;19.00;99.90;;;;;;5135528;27;19946;-81
2023/07/15 00:51:57;;;;;;;;;;;19.00;99.90;;;;;;5118833;27;19923;-80
2023/07/15 00:54:23;;;;;;;;;;;19.00;99.90;;;;;;5118178;27;19988;-82
2023/07/15 00:56:49;;;;;;;;;;;19.00;99.90;;;;;;5118225;27;19923;-76
2023/07/15 00:59:15;;;;;;;;;;;19.00;99.90;;;;;;5135147;27;19929;-79
2023/07/15 01:01:41;;;;;;;;;;;19.10;99.90;;;;;;5133907;27;20390;-79
2023/07/15 01:04:07;;;;;;;;;;;19.10;99.90;;;;;;5135089;27;20305;-84
2023/07/15 01:06:35;;;;;;;;;;;19.10;99.90;;;;;;5135328;27;19930;-81
2023/07/15 01:09:07;;;;;;;;;;;19.10;99.90;;;;;;5135425;27;19937;-76
2023/07/15 01:11:33;;;;;;;;;;;19.10;99.90;;;;;;5135412;27;19929;-78
2023/07/15 01:13:59;;;;;;;;;;;19.10;99.90;;;;;;5134849;27;19954;-81
2023/07/15 01:16:24;;;;;;;;;;;19.20;99.90;;;;;;5134421;27;19973;-81
2023/07/15 01:18:50;;;;;;;;;;;19.20;99.90;;;;;;5118282;27;19923;-82
2023/07/15 01:21:18;;;;;;;;;;;19.20;99.90;;;;;;5134802;27;20271;-82
2023/07/15 01:23:44;;;;;;;;;;;19.20;99.90;;;;;;5134783;27;19927;-79
2023/07/15 01:26:10;;;;;;;;;;;19.30;99.90;;;;;;5135392;27;19930;-79
2023/07/15 01:28:37;;;;;;;;;;;19.30;99.90;;;;;;5134877;27;20014;-79
2023/07/15 01:31:03;;;;;;;;;;;19.40;99.90;;;;;;5135757;27;19964;-81
2023/07/15 01:33:29;;;;;;;;;;;19.40;99.90;;;;;;5134856;27;19919;-78
2023/07/15 01:35:54;;;;;;;;;;;19.40;99.90;;;;;;5117966;27;19919;-80
2023/07/15 01:38:20;;;;;;;;;;;19.40;99.90;;;;;;5134741;27;19991;-76
2023/07/15 01:40:46;;;;;;;;;;;19.40;99.90;;;;;;5134897;27;19923;-80
2023/07/15 01:43:11;;;;;;;;;;;19.40;99.90;;;;;;5117825;27;20393;-82
2023/07/15 01:45:39;;;;;;;;;;;19.40;99.90;;;;;;5134785;27;20261;-79
2023/07/15 01:48:05;;;;;;;;;;;19.50;99.90;;;;;;5134521;27;20444;-78
2023/07/15 01:50:30;;;;;;;;;;;19.40;99.90;;;;;;5125791;27;19919;-82
2023/07/15 01:52:56;;;;;;;;;;;19.50;99.90;;;;;;5152707;27;19982;-80
2023/07/15 01:55:21;;;;;;;;;;;19.40;99.90;;;;;;5134537;27;19929;-81
2023/07/15 01:57:47;;;;;;;;;;;19.40;99.90;;;;;;5134528;27;19926;-81
2023/07/15 02:00:16;;;;;;;;;;;19.40;99.90;;;;;;5134710;27;19930;-80
2023/07/15 02:02:42;;;;;;;;;;;19.30;99.90;;;;;;5134419;27;19923;-80
2023/07/15 02:05:08;;;;;;;;;;;19.30;99.90;;;;;;5134896;27;19919;-81
2023/07/15 02:07:33;;;;;;;;;;;19.30;99.90;;;;;;5152459;27;19930;-77
2023/07/15 02:09:59;;;;;;;;;;;19.20;99.90;;;;;;5135292;27;19962;-79
2023/07/15 02:12:24;;;;;;;;;;;19.20;99.90;;;;;;5118120;27;19923;-80
2023/07/15 02:14:50;;;;;;;;;;;19.20;99.90;;;;;;5135013;27;19923;-81
2023/07/15 02:17:20;;;;;;;;;;;19.20;99.90;;;;;;5121064;27;20151;-84
2023/07/15 02:19:47;;;;;;;;;;;19.10;99.90;;;;;;5138292;27;19979;-78
2023/07/15 02:22:16;;;;;;;;;;;19.10;99.90;;;;;;5156896;27;20572;-80
2023/07/15 02:24:41;;;;;;;;;;;19.10;99.90;;;;;;5137667;27;19923;-77
2023/07/15 02:27:13;;;;;;;;;;;19.00;99.90;;;;;;5138438;27;20503;-82
2023/07/15 02:29:38;;;;;;;;;;;18.90;99.90;;;;;;5137878;27;19924;-79
2023/07/15 02:32:04;;;;;;;;;;;18.90;99.90;;;;;;5138045;27;20419;-79
2023/07/15 02:34:30;;;;;;;;;;;18.90;99.90;;;;;;5137127;27;19931;-81
2023/07/15 02:36:56;;;;;;;;;;;18.80;99.90;;;;;;5137922;27;19962;-81
2023/07/15 02:39:21;;;;;;;;;;;18.80;99.90;;;;;;5120124;27;20025;-80
2023/07/15 02:41:47;;;;;;;;;;;18.70;99.90;;;;;;5137751;27;20339;-79
2023/07/15 02:44:12;;;;;;;;;;;18.70;99.90;;;;;;5137679;27;19923;-80
2023/07/15 02:46:38;;;;;;;;;;;18.60;99.90;;;;;;5103306;27;19925;-76
2023/07/15 02:49:04;;;;;;;;;;;18.60;99.90;;;;;;5137039;27;19923;-78
2023/07/15 02:51:29;;;;;;;;;;;18.60;99.90;;;;;;5116496;27;19983;-82
2023/07/15 02:53:55;;;;;;;;;;;18.70;99.90;;;;;;5116990;27;19926;-79
2023/07/15 02:56:21;;;;;;;;;;;18.70;99.90;;;;;;5116851;27;19923;-77
2023/07/15 02:58:49;;;;;;;;;;;18.60;99.90;;;;;;5135744;27;19927;-78
2023/07/15 03:01:15;;;;;;;;;;;18.60;99.90;;;;;;5083355;27;20314;-81
2023/07/15 03:03:40;;;;;;;;;;;18.50;99.90;;;;;;5116254;27;20091;-77
2023/07/15 03:06:06;;;;;;;;;;;18.50;99.90;;;;;;5116787;27;19968;-81
2023/07/15 03:08:38;;;;;;;;;;;18.50;99.90;;;;;;5116616;27;19934;-82
2023/07/15 03:11:07;;;;;;;;;;;18.60;99.90;;;;;;5100082;27;20269;-76
2023/07/15 03:13:33;;;;;;;;;;;18.70;99.90;;;;;;5117203;27;19928;-81
2023/07/15 03:15:58;;;;;;;;;;;18.80;99.90;;;;;;5116693;27;19968;-81
2023/07/15 03:18:25;;;;;;;;;;;18.90;99.90;;;;;;5099567;27;19968;-76
2023/07/15 03:20:52;;;;;;;;;;;19.10;99.90;;;;;;5117065;27;19920;-78
2023/07/15 03:23:18;;;;;;;;;;;19.20;99.90;;;;;;5099775;27;19940;-81
2023/07/15 03:25:43;;;;;;;;;;;19.20;99.90;;;;;;5115761;27;19949;-77
2023/07/15 03:28:09;;;;;;;;;;;19.40;99.90;;;;;;5114332;27;19966;-83
2023/07/15 03:30:35;;;;;;;;;;;19.60;99.90;;;;;;5098076;27;20376;-80
2023/07/15 03:33:00;;;;;;;;;;;19.70;99.90;;;;;;5116058;27;19926;-80
2023/07/15 03:35:26;;;;;;;;;;;19.70;99.90;;;;;;5098515;27;20014;-79
2023/07/15 03:37:52;;;;;;;;;;;19.80;99.90;;;;;;5098963;27;20022;-78
2023/07/15 03:40:18;;;;;;;;;;;19.80;99.90;;;;;;5082407;27;20027;-79
2023/07/15 03:42:43;;;;;;;;;;;19.80;99.90;;;;;;5100040;27;19946;-80
2023/07/15 03:45:10;;;;;;;;;;;19.90;99.90;;;;;;5136870;27;19919;-80
2023/07/15 03:47:36;;;;;;;;;;;19.90;99.90;;;;;;5135944;27;20013;-81
2023/07/15 03:50:02;;;;;;;;;;;19.80;99.90;;;;;;5136450;27;20002;-79
2023/07/15 03:52:28;;;;;;;;;;;19.80;99.90;;;;;;5102079;27;19923;-76
2023/07/15 03:54:54;;;;;;;;;;;19.80;99.90;;;;;;5136401;27;19919;-82
2023/07/15 03:57:19;;;;;;;;;;;19.90;99.90;;;;;;5136339;27;19923;-78
2023/07/15 03:59:45;;;;;;;;;;;19.90;99.90;;;;;;5136177;27;19927;-78
2023/07/15 04:02:10;;;;;;;;;;;19.90;99.90;;;;;;5136207;27;19931;-78
2023/07/15 04:04:36;;;;;;;;;;;19.90;99.90;;;;;;5136201;27;19923;-78
2023/07/15 04:07:03;;;;;;;;;;;19.90;99.90;;;;;;5135909;27;19919;-81
2023/07/15 04:09:29;;;;;;;;;;;19.80;99.90;;;;;;5118260;27;20376;-78
2023/07/15 04:11:54;;;;;;;;;;;19.80;99.90;;;;;;5135978;27;19926;-76
2023/07/15 04:14:20;;;;;;;;;;;19.80;99.90;;;;;;5119108;27;19923;-79
2023/07/15 04:16:45;;;;;;;;;;;19.80;99.90;;;;;;5118618;27;20112;-80
2023/07/15 04:19:11;;;;;;;;;;;19.70;99.90;;;;;;5101756;27;19926;-80
2023/07/15 04:21:36;;;;;;;;;;;19.70;99.90;;;;;;5135849;27;19926;-82
2023/07/15 04:24:03;;;;;;;;;;;19.70;99.90;;;;;;5136904;27;20002;-80
2023/07/15 04:26:34;;;;;;;;;;;19.70;99.90;;;;;;5119374;27;20394;-78
2023/07/15 04:29:00;;;;;;;;;;;19.70;99.90;;;;;;5118478;27;19924;-79
2023/07/15 04:31:25;;;;;;;;;;;19.70;99.90;;;;;;5153668;27;19923;-77
2023/07/15 04:33:55;;;;;;;;;;;19.70;99.90;;;;;;5154202;27;19926;-77
2023/07/15 04:36:21;;;;;;;;;;;19.70;99.90;;;;;;5135521;27;19931;-79
2023/07/15 04:38:53;;;;;;;;;;;19.70;99.90;;;;;;5134293;27;19934;-81
2023/07/15 04:41:18;;;;;;;;;;;19.70;99.90;;;;;;5114668;27;20662;-77
2023/07/15 04:43:44;;;;;;;;;;;19.70;99.90;;;;;;5114269;27;20364;-81
2023/07/15 04:46:10;;;;;;;;;;;19.80;99.90;;;;;;5115125;27;19944;-79
2023/07/15 04:48:36;;;;;;;;;;;19.80;99.90;;;;;;5114470;27;20416;-79
2023/07/15 04:51:01;;;;;;;;;;;19.80;99.90;;;;;;5127923;27;20044;-78
2023/07/15 04:53:27;;;;;;;;;;;19.90;99.90;;;;;;5097638;28;19919;-78
2023/07/15 04:55:59;;;;;;;;;;;19.90;99.90;;;;;;5132088;27;19939;-77
2023/07/15 04:58:25;;;;;;;;;;;19.90;99.90;;;;;;5132086;27;19928;-81
2023/07/15 05:00:51;;;;;;;;;;;20.00;99.90;;;;;;5131599;27;19984;-79
2023/07/15 05:03:17;;;;;;;;;;;20.10;99.90;;;;;;5114753;28;20393;-82
2023/07/15 05:05:44;;;;;;;;;;;20.30;99.90;;;;;;5114278;27;20005;-81
2023/07/15 05:08:12;;;;;;;;;;;20.40;99.90;;;;;;5132016;27;19984;-78
2023/07/15 05:10:38;;;;;;;;;;;20.40;99.90;;;;;;5131395;28;19919;-80
2023/07/15 05:13:03;;;;;;;;;;;20.40;99.90;;;;;;5131644;28;19965;-80
2023/07/15 05:15:29;;;;;;;;;;;20.50;99.90;;;;;;5131705;28;19985;-79
2023/07/15 05:17:55;;;;;;;;;;;20.40;99.90;;;;;;5114469;28;19930;-79
2023/07/15 05:20:20;;;;;;;;;;;20.40;99.90;;;;;;5131591;28;19927;-79
2023/07/15 05:22:46;;;;;;;;;;;20.40;99.90;;;;;;5096723;28;19932;-78
2023/07/15 05:25:12;;;;;;;;;;;20.40;99.90;;;;;;5131488;28;19965;-79
2023/07/15 05:27:38;;;;;;;;;;;20.30;99.90;;;;;;5131706;28;19930;-77
2023/07/15 05:30:04;;;;;;;;;;;20.30;99.90;;;;;;5132063;28;19920;-78
2023/07/15 05:32:29;;;;;;;;;;;20.30;99.90;;;;;;5131538;28;20012;-81
2023/07/15 05:34:55;;;;;;;;;;;20.30;99.90;;;;;;5131117;28;19924;-77
2023/07/15 05:37:21;;;;;;;;;;;20.40;99.90;;;;;;5134970;27;19930;-78
2023/07/15 05:39:46;;;;;;;;;;;20.40;99.90;;;;;;5134165;27;20017;-80
2023/07/15 05:42:12;;;;;;;;;;;20.50;99.90;;;;;;5134636;27;19919;-81
2023/07/15 05:44:37;;;;;;;;;;;20.50;99.90;;;;;;5134628;27;19941;-81
2023/07/15 05:47:03;;;;;;;;;;;20.50;99.90;;;;;;5134506;27;19918;-78
2023/07/15 05:49:29;;;;;;;;;;;20.60;99.90;;;;;;5134329;27;19919;-78
2023/07/15 05:51:54;;;;;;;;;;;20.50;99.90;;;;;;5137487;27;20510;-80
2023/07/15 05:54:20;;;;;;;;;;;20.60;99.90;;;;;;5121066;27;19962;-81
2023/07/15 05:56:45;;;;;;;;;;;20.60;99.90;;;;;;5138783;27;19930;-76
2023/07/15 05:59:11;;;;;;;;;;;20.70;99.90;;;;;;5138594;27;19970;-77
2023/07/15 06:01:36;;;;;;;;;;;20.70;99.90;;;;;;5138419;27;19930;-77
2023/07/15 06:04:05;;;;;;;;;;;20.80;99.90;;;;;;5139387;27;19927;-77
2023/07/15 06:06:31;;;;;;;;;;;20.90;99.90;;;;;;5139698;27;20028;-81
2023/07/15 06:08:56;;;;;;;;;;;20.90;99.90;;;;;;5121432;27;19931;-81
2023/07/15 06:11:22;;;;;;;;;;;21.00;99.90;;;;;;5121223;27;19975;-81
2023/07/15 06:13:47;;;;;;;;;;;21.00;99.90;;;;;;5137976;27;19923;-76
2023/07/15 06:16:13;;;;;;;;;;;21.10;99.90;;;;;;5138225;27;19923;-76
2023/07/15 06:18:39;;;;;;;;;;;21.20;99.90;;;;;;5137973;27;19956;-78
2023/07/15 06:21:06;;;;;;;;;;;21.20;99.90;;;;;;5155485;27;19938;-77
2023/07/15 06:23:32;;;;;;;;;;;21.30;99.90;;;;;;5138714;27;19987;-77
2023/07/15 06:25:57;;;;;;;;;;;21.30;99.90;;;;;;5137997;27;19923;-78
2023/07/15 06:28:23;;;;;;;;;;;21.40;99.90;;;;;;5121128;27;19931;-76
2023/07/15 06:30:50;;;;;;;;;;;21.50;99.90;;;;;;5121233;27;19923;-77
2023/07/15 06:33:15;;;;;;;;;;;21.60;99.90;;;;;;5139095;27;19928;-79
2023/07/15 06:35:41;;;;;;;;;;;21.70;99.90;;;;;;5138932;27;20301;-80
2023/07/15 06:38:07;;;;;;;;;;;21.80;99.90;;;;;;5138088;27;19963;-79
2023/07/15 06:40:33;;;;;;;;;;;21.80;99.90;;;;;;5134121;27;19978;-81
2023/07/15 06:42:59;;;;;;;;;;;21.80;99.90;;;;;;5133764;27;19930;-81
2023/07/15 06:45:31;;;;;;;;;;;21.80;99.90;;;;;;5134167;27;20006;-78
2023/07/15 06:47:56;;;;;;;;;;;21.70;99.90;;;;;;5116492;27;19984;-78
2023/07/15 06:50:22;;;;;;;;;;;21.70;99.90;;;;;;5134205;27;19924;-79
2023/07/15 06:52:48;;;;;;;;;;;21.80;99.90;;;;;;5133752;27;20002;-79
2023/07/15 06:55:13;;;;;;;;;;;21.90;99.90;;;;;;5133664;27;19941;-76
2023/07/15 06:57:39;;;;;;;;;;;22.10;99.90;;;;;;5133932;27;19923;-79
2023/07/15 07:00:05;;;;;;;;;;;22.20;99.90;;;;;;5133668;27;20367;-76
2023/07/15 07:02:30;;;;;;;;;;;22.20;99.90;;;;;;5116754;27;19925;-83
2023/07/15 07:04:56;;;;;;;;;;;22.20;99.90;;;;;;5133324;27;19924;-81
2023/07/15 07:07:23;;;;;;;;;;;22.30;99.90;;;;;;5133868;27;19927;-77
2023/07/15 07:09:49;;;;;;;;;;;22.50;99.90;;;;;;5116490;27;19969;-80
2023/07/15 07:12:14;;;;;;;;;;;22.60;99.90;;;;;;5134099;27;20360;-78
2023/07/15 07:14:40;;;;;;;;;;;22.80;99.90;;;;;;5133464;27;19923;-80
2023/07/15 07:17:06;;;;;;;;;;;23.00;99.90;;;;;;5133550;27;19919;-77
2023/07/15 07:19:31;;;;;;;;;;;23.10;99.90;;;;;;5116430;27;20681;-81
2023/07/15 07:21:57;;;;;;;;;;;23.30;99.90;;;;;;5133506;27;20296;-76
2023/07/15 07:24:23;;;;;;;;;;;23.30;99.90;;;;;;5133671;27;20005;-78
2023/07/15 07:26:50;;;;;;;;;;;23.40;99.90;;;;;;5133135;27;19987;-81
2023/07/15 07:29:15;;;;;;;;;;;23.50;99.90;;;;;;5127398;27;19934;-81
2023/07/15 07:31:44;;;;;;;;;;;23.70;99.90;;;;;;5132813;27;19919;-78
2023/07/15 07:34:09;;;;;;;;;;;23.70;99.90;;;;;;5133328;27;20020;-80
2023/07/15 07:36:35;;;;;;;;;;;23.90;99.90;;;;;;5116620;27;19934;-78
2023/07/15 07:39:01;;;;;;;;;;;23.90;99.90;;;;;;5116236;27;19927;-79
2023/07/15 07:41:27;;;;;;;;;;;24.10;99.90;;;;;;5133242;27;19923;-77
2023/07/15 07:43:53;;;;;;;;;;;24.30;99.90;;;;;;5132727;27;19926;-81
2023/07/15 07:46:18;;;;;;;;;;;24.40;99.90;;;;;;5132440;27;19923;-80
2023/07/15 07:48:44;;;;;;;;;;;24.40;99.90;;;;;;5115567;27;19945;-82
2023/07/15 07:51:09;;;;;;;;;;;24.50;99.90;;;;;;5114326;27;19986;-82
2023/07/15 07:53:35;;;;;;;;;;;24.60;99.90;;;;;;5112114;28;19924;-81
2023/07/15 07:56:01;;;;;;;;;;;24.60;99.90;;;;;;5094602;28;19932;-81
2023/07/15 07:58:26;;;;;;;;;;;24.60;99.90;;;;;;5111831;28;20018;-81
2023/07/15 08:00:52;;;;;;;;;;;24.80;99.90;;;;;;5112056;28;19928;-78
2023/07/15 08:03:18;;;;;;;;;;;24.80;99.90;;;;;;5111765;28;19923;-80
2023/07/15 08:05:46;;;;;;;;;;;24.80;99.90;;;;;;5094967;28;19985;-82
2023/07/15 08:08:12;;;;;;;;;;;24.70;99.90;;;;;;5111906;28;19977;-80
2023/07/15 08:10:37;;;;;;;;;;;24.70;99.90;;;;;;5112229;28;19920;-80
2023/07/15 08:13:05;;;;;;;;;;;24.80;99.90;;;;;;5110847;28;19920;-76
2023/07/15 08:15:35;;;;;;;;;;;24.80;99.90;;;;;;5112109;28;20024;-76
2023/07/15 08:18:01;;;;;;;;;;;25.00;99.90;;;;;;5111792;28;20303;-80
2023/07/15 08:20:27;;;;;;;;;;;25.20;99.90;;;;;;5095021;28;19928;-82
2023/07/15 08:22:52;;;;;;;;;;;25.20;99.90;;;;;;5111396;28;19926;-82
2023/07/15 08:25:18;;;;;;;;;;;25.10;99.90;;;;;;5103407;28;20274;-78
2023/07/15 08:27:43;;;;;;;;;;;25.10;99.90;;;;;;5111468;28;20014;-79
2023/07/15 08:30:09;;;;;;;;;;;25.20;99.90;;;;;;5094178;28;20373;-80
2023/07/15 08:32:35;;;;;;;;;;;25.40;99.90;;;;;;5128640;27;19919;-78
2023/07/15 08:35:04;;;;;;;;;;;25.60;99.90;;;;;;5111248;28;20389;-80
2023/07/15 08:37:33;;;;;;;;;;;25.80;99.90;;;;;;5112920;28;19924;-78
2023/07/15 08:39:58;;;;;;;;;;;25.70;99.90;;;;;;5128028;27;20034;-84
2023/07/15 08:42:30;;;;;;;;;;;25.60;99.90;;;;;;5112630;28;19924;-78
2023/07/15 08:44:56;;;;;;;;;;;25.50;99.90;;;;;;5128520;27;19926;-77
2023/07/15 08:47:22;;;;;;;;;;;25.50;99.90;;;;;;5111331;28;19920;-78
2023/07/15 08:49:49;;;;;;;;;;;25.40;99.90;;;;;;5131965;27;19931;-79
2023/07/15 08:52:17;;;;;;;;;;;25.40;99.90;;;;;;5132185;27;19923;-80
2023/07/15 08:54:43;;;;;;;;;;;25.30;99.90;;;;;;5132357;27;19920;-77
2023/07/15 08:57:08;;;;;;;;;;;25.20;99.90;;;;;;5131934;27;20272;-79
2023/07/15 08:59:34;;;;;;;;;;;25.20;99.90;;;;;;5132349;27;19929;-81
2023/07/15 09:02:00;;;;;;;;;;;25.10;99.90;;;;;;5131046;27;19968;-77
2023/07/15 09:04:25;;;;;;;;;;;25.10;99.90;;;;;;5131664;27;19919;-78
2023/07/15 09:06:54;;;;;;;;;;;25.20;99.90;;;;;;5131506;27;20333;-76
2023/07/15 09:09:33;;;;;;;;;;;25.20;99.90;;;;;;5131496;27;19939;-81
2023/07/15 09:12:09;;;;;;;;;;;25.20;99.90;;;;;;5131482;28;19940;-80
2023/07/15 09:14:41;;;;;;;;;;;25.20;99.90;;;;;;5131668;28;19983;-79
2023/07/15 09:17:07;;;;;;;;;;;25.20;99.90;;;;;;5131630;28;19923;-78
2023/07/15 09:19:33;;;;;;;;;;;25.20;99.90;;;;;;5114960;28;20014;-80
2023/07/15 09:22:07;;;;;;;;;;;25.30;99.90;;;;;;5131574;28;19920;-80
2023/07/15 09:24:33;;;;;;;;;;;25.30;99.90;;;;;;5131771;27;19998;-75
2023/07/15 09:27:02;;;;;;;;;;;25.30;99.90;;;;;;5134542;27;20318;-82
2023/07/15 09:29:28;;;;;;;;;;;25.40;99.90;;;;;;5118644;27;20323;-78
2023/07/15 09:31:54;;;;;;;;;;;25.40;99.90;;;;;;5135526;27;20014;-75
2023/07/15 09:34:20;;;;;;;;;;;25.40;99.90;;;;;;5135240;27;19988;-76
2023/07/15 09:36:46;;;;;;;;;;;25.50;99.90;;;;;;5135436;27;19919;-77
2023/07/15 09:39:17;;;;;;;;;;;25.50;99.90;;;;;;5120743;27;19949;-80
2023/07/15 09:41:43;;;;;;;;;;;25.60;99.90;;;;;;5138380;27;19958;-81
2023/07/15 09:44:09;;;;;;;;;;;26.00;99.90;;;;;;5138245;27;19962;-77
2023/07/15 09:46:34;;;;;;;;;;;26.20;99.90;;;;;;5138368;27;19965;-80
2023/07/15 09:49:03;;;;;;;;;;;26.10;99.90;;;;;;5156440;27;19924;-79
2023/07/15 09:51:29;;;;;;;;;;;26.00;99.90;;;;;;5100540;27;20010;-80
2023/07/15 09:53:55;;;;;;;;;;;26.00;99.90;;;;;;5100690;27;19923;-78
2023/07/15 09:56:31;;;;;;;;;;;26.00;99.90;;;;;;5117564;27;19936;-81
2023/07/15 09:59:00;;;;;;;;;;;26.10;99.90;;;;;;5117619;27;19927;-79
2023/07/15 10:01:31;;;;;;;;;;;26.20;99.90;;;;;;5118158;27;19954;-77
2023/07/15 10:04:10;;;;;;;;;;;26.20;99.90;;;;;;5117707;27;20352;-78
2023/07/15 10:06:37;;;;;;;;;;;26.00;99.90;;;;;;5114093;27;19934;-79
2023/07/15 10:09:04;;;;;;;;;;;25.80;99.90;;;;;;5118067;27;20296;-78
2023/07/15 10:11:34;;;;;;;;;;;25.60;99.90;;;;;;5136148;27;19926;-81
2023/07/15 10:14:00;;;;;;;;;;;25.80;99.90;;;;;;5117134;27;20388;-80
2023/07/15 10:16:26;;;;;;;;;;;25.90;99.90;;;;;;5117809;27;19970;-77
2023/07/15 10:18:55;;;;;;;;;;;25.90;99.90;;;;;;5138718;27;19919;-79
2023/07/15 10:21:21;;;;;;;;;;;25.70;99.90;;;;;;5137295;27;20052;-78
2023/07/15 10:23:47;;;;;;;;;;;25.80;99.90;;;;;;5137677;27;19933;-78
2023/07/15 10:26:19;;;;;;;;;;;25.90;99.90;;;;;;5137656;27;20364;-80
2023/07/15 10:28:44;;;;;;;;;;;26.20;99.90;;;;;;5120479;27;20307;-81
2023/07/15 10:31:13;;;;;;;;;;;26.40;99.90;;;;;;5137774;27;19919;-79
2023/07/15 10:33:54;;;;;;;;;;;26.60;99.90;;;;;;5137784;27;19926;-77
2023/07/15 10:36:36;;;;;;;;;;;26.70;99.90;;;;;;5119356;27;20379;-78
2023/07/15 10:39:12;;;;;;;;;;;26.90;99.90;;;;;;5137156;27;20017;-79
2023/07/15 10:41:40;;;;;;;;;;;27.20;99.90;;;;;;5136730;27;19919;-80
2023/07/15 10:44:14;;;;;;;;;;;27.40;99.90;;;;;;5136061;27;19927;-78
2023/07/15 10:46:42;;;;;;;;;;;27.40;99.90;;;;;;5102681;27;19926;-79
2023/07/15 10:49:09;;;;;;;;;;;27.30;99.90;;;;;;5134664;27;19980;-80
2023/07/15 10:51:35;;;;;;;;;;;27.40;99.90;;;;;;5098342;28;20028;-79
2023/07/15 10:54:02;;;;;;;;;;;27.30;99.90;;;;;;5114862;28;20477;-78
2023/07/15 10:56:27;;;;;;;;;;;27.20;99.90;;;;;;5115458;28;19928;-79
2023/07/15 10:58:56;;;;;;;;;;;27.10;99.90;;;;;;5133574;28;20360;-79
2023/07/15 11:01:22;;;;;;;;;;;27.00;99.90;;;;;;5097753;28;19997;-80
2023/07/15 11:03:47;;;;;;;;;;;26.90;99.90;;;;;;5098090;28;20030;-76
2023/07/15 11:06:13;;;;;;;;;;;26.80;99.90;;;;;;5081948;28;20015;-79
2023/07/15 11:08:39;;;;;;;;;;;26.80;99.90;;;;;;5097908;28;19930;-78
2023/07/15 11:11:06;;;;;;;;;;;26.80;99.90;;;;;;5097777;28;20348;-77
2023/07/15 11:13:35;;;;;;;;;;;26.80;99.90;;;;;;5123960;27;19966;-80
2023/07/15 11:16:01;;;;;;;;;;;27.00;99.90;;;;;;5136133;27;19919;-80
2023/07/15 11:18:27;;;;;;;;;;;27.10;99.90;;;;;;5136135;27;19927;-80
2023/07/15 11:20:57;;;;;;;;;;;27.20;99.90;;;;;;5101295;27;19929;-79
2023/07/15 11:23:23;;;;;;;;;;;27.00;99.90;;;;;;5134838;27;20392;-77
2023/07/15 11:25:48;;;;;;;;;;;26.90;99.90;;;;;;5135235;27;19930;-79
2023/07/15 11:28:16;;;;;;;;;;;26.80;99.90;;;;;;5135158;27;19975;-80
2023/07/15 11:30:44;;;;;;;;;;;26.90;99.90;;;;;;5135953;27;19923;-83
2023/07/15 11:33:10;;;;;;;;;;;27.10;99.90;;;;;;5135014;27;19919;-78
2023/07/15 11:35:38;;;;;;;;;;;27.20;99.90;;;;;;5100969;27;20418;-80
2023/07/15 11:38:12;;;;;;;;;;;27.10;99.90;;;;;;5135161;27;20040;-78
2023/07/15 11:41:40;;;;;;;;;;;26.90;99.90;;;;;;5162934;27;19918;-79
2023/07/15 11:44:13;;;;;;;;;;;26.70;99.90;;;;;;5163062;27;20348;-79
2023/07/15 11:46:39;;;;;;;;;;;26.70;99.90;;;;;;5128658;28;20312;-78
2023/07/15 11:49:05;;;;;;;;;;;26.70;99.90;;;;;;5128754;28;20017;-80
2023/07/15 11:51:32;;;;;;;;;;;26.70;99.90;;;;;;5111927;28;19926;-78
2023/07/15 11:53:58;;;;;;;;;;;26.70;99.90;;;;;;5094737;28;19931;-77
2023/07/15 11:56:40;;;;;;;;;;;26.70;99.90;;;;;;5111811;28;19923;-80
2023/07/15 11:59:24;;;;;;;;;;;26.70;99.90;;;;;;5128416;28;20040;-79
2023/07/15 12:01:53;;;;;;;;;;;26.90;99.90;;;;;;5112167;28;20464;-76
2023/07/15 12:04:19;;;;;;;;;;;27.20;99.90;;;;;;5128704;28;19941;-81
2023/07/15 12:06:45;;;;;;;;;;;27.50;99.90;;;;;;5111500;28;19927;-82
2023/07/15 12:09:12;;;;;;;;;;;27.70;99.90;;;;;;5111029;28;19927;-78
2023/07/15 12:11:38;;;;;;;;;;;27.90;99.90;;;;;;5129561;28;20359;-82
2023/07/15 12:14:05;;;;;;;;;;;28.10;99.90;;;;;;5111330;28;20026;-81
2023/07/15 12:16:31;;;;;;;;;;;28.30;99.90;;;;;;5111465;28;20314;-80
2023/07/15 12:18:58;;;;;;;;;;;28.30;99.90;;;;;;5128187;28;20296;-79
2023/07/15 12:21:24;;;;;;;;;;;28.30;99.90;;;;;;5127711;28;19927;-78
2023/07/15 12:23:50;;;;;;;;;;;28.60;99.90;;;;;;5127765;28;19923;-78
2023/07/15 12:26:18;;;;;;;;;;;29.00;99.90;;;;;;5128077;28;19961;-80
2023/07/15 12:28:43;;;;;;;;;;;29.30;99.60;;;;;;5110348;28;19926;-78
2023/07/15 12:31:09;;;;;;;;;;;29.30;99.30;;;;;;5127129;28;19920;-78
2023/07/15 12:33:35;;;;;;;;;;;29.40;99.20;;;;;;5128206;28;19924;-78
2023/07/15 12:36:04;;;;;;;;;;;29.40;98.90;;;;;;5127629;28;19959;-79
2023/07/15 12:38:30;;;;;;;;;;;29.30;98.70;;;;;;5127190;27;19923;-78
2023/07/15 12:40:56;;;;;;;;;;;29.20;99.10;;;;;;5109975;28;19928;-79
2023/07/15 12:43:23;;;;;;;;;;;29.00;98.50;;;;;;5127421;28;19920;-82
2023/07/15 12:45:49;;;;;;;;;;;28.70;98.60;;;;;;5110684;28;20447;-78
2023/07/15 12:48:15;;;;;;;;;;;28.50;98.50;;;;;;5127184;28;19962;-78
2023/07/15 12:50:42;;;;;;;;;;;28.50;99.10;;;;;;5109082;28;19969;-78
2023/07/15 12:53:07;;;;;;;;;;;28.50;98.90;;;;;;5113683;28;20375;-78
2023/07/15 12:55:33;;;;;;;;;;;28.40;99.30;;;;;;5113559;28;20018;-79
2023/07/15 12:57:59;;;;;;;;;;;28.50;99.30;;;;;;5113983;28;19924;-77
2023/07/15 13:00:24;;;;;;;;;;;28.70;99.00;;;;;;5113498;28;19950;-81
2023/07/15 13:02:50;;;;;;;;;;;28.70;98.80;;;;;;5113990;28;19931;-77
2023/07/15 13:05:16;;;;;;;;;;;28.60;98.00;;;;;;5113149;28;19920;-81
2023/07/15 13:07:41;;;;;;;;;;;28.50;98.40;;;;;;5098015;28;19919;-81
2023/07/15 13:10:07;;;;;;;;;;;28.40;98.50;;;;;;5113368;28;19934;-78
2023/07/15 13:12:32;;;;;;;;;;;28.30;98.80;;;;;;5096262;28;20442;-82
2023/07/15 13:14:58;;;;;;;;;;;28.20;97.90;;;;;;5096695;28;19982;-78
2023/07/15 13:17:24;;;;;;;;;;;28.10;98.00;;;;;;5096309;28;19919;-80
2023/07/15 13:19:49;;;;;;;;;;;27.90;97.80;;;;;;5079118;28;19928;-80
2023/07/15 13:22:15;;;;;;;;;;;27.70;98.40;;;;;;5114214;28;19942;-80
2023/07/15 13:24:40;;;;;;;;;;;27.50;98.10;;;;;;5079787;28;19924;-80
2023/07/15 13:27:06;;;;;;;;;;;27.40;98.00;;;;;;5078871;28;19934;-79
2023/07/15 13:29:31;;;;;;;;;;;27.40;98.40;;;;;;5113712;28;19920;-80
2023/07/15 13:31:57;;;;;;;;;;;27.20;98.40;;;;;;5113615;28;19946;-78
2023/07/15 13:34:23;;;;;;;;;;;27.00;98.50;;;;;;5113241;28;20368;-81
2023/07/15 13:36:48;;;;;;;;;;;26.80;98.50;;;;;;5097048;28;19924;-83
2023/07/15 13:39:33;;;;;;;;;;;26.60;98.80;;;;;;5112747;28;20010;-76
2023/07/15 13:41:59;;;;;;;;;;;26.50;98.30;;;;;;5112932;28;20405;-81
2023/07/15 13:44:25;;;;;;;;;;;26.20;98.80;;;;;;5095557;28;19919;-82
2023/07/15 13:46:51;;;;;;;;;;;26.10;98.70;;;;;;5096077;28;19966;-78
2023/07/15 13:49:17;;;;;;;;;;;25.90;98.70;;;;;;5095720;28;19959;-79
2023/07/15 13:51:42;;;;;;;;;;;26.00;98.90;;;;;;5112589;28;19924;-77
2023/07/15 13:54:08;;;;;;;;;;;26.00;98.70;;;;;;5096114;28;19920;-80
2023/07/15 13:56:33;;;;;;;;;;;26.20;98.30;;;;;;5112713;28;20006;-81
2023/07/15 13:58:59;;;;;;;;;;;26.30;98.50;;;;;;5112731;28;19924;-79
2023/07/15 14:01:24;;;;;;;;;;;26.60;98.90;;;;;;5095042;28;20045;-80
2023/07/15 14:03:50;;;;;;;;;;;27.00;99.00;;;;;;5074425;28;19928;-79
2023/07/15 14:06:15;;;;;;;;;;;27.70;99.80;;;;;;5075475;28;19924;-84
2023/07/15 14:08:41;;;;;;;;;;;28.10;99.60;;;;;;5092089;28;19920;-79
2023/07/15 14:11:07;;;;;;;;;;;28.20;99.00;;;;;;5075197;28;20180;-78
2023/07/15 14:13:32;;;;;;;;;;;28.20;99.40;;;;;;5106547;28;19920;-78